Impacts TAF Board
For situational awareness. Not to be used for flight planning purposes.
IDs:

EDDK - Koln-Bonn Arpt, NT, DL

Issued at 1700 UTC 01 Mar 2021
Updated at 2242 UTC 01 Mar 2021
Potential Impact None Slight Moderate High
Time2220Z 01/23Z 02/00Z 02/01Z 02/02Z 02/03Z 02/04Z 02/05Z 02/06Z 02/07Z 02/08Z 02/09Z 02/10Z 02/11Z>>
Type OBS PRVL PRVL PRVL PRVL PRVL PRVL PRVL PRVL PRVL PRVL PRVL PRVL PRVL
VIS >6 >6 >6 >6 >6 >6 >6 >6 >6 >6 >6 >6 >6 >6
CIG -- -- -- -- -- -- -- -- -- -- -- -- -- --
Cover CAVOK NSC NSC NSC NSC NSC NSC NSC NSC NSC NSC NSC NSC NSC
FltCat VFR VFR VFR VFR VFR VFR VFR VFR VFR VFR VFR VFR VFR VFR
WX -- NSW NSW NSW NSW NSW NSW NSW NSW NSW NSW NSW NSW NSW
WDir 100 VRB VRB VRB VRB VRB VRB VRB VRB 130 130 130 130 130
WSpd 3 3 3 3 3 3 3 3 3 9 9 9 9 9
WGst -- -- -- -- -- -- -- -- -- -- -- -- -- --
Raw TAF
TAF EDDK 011700Z 0118/0224 12005KT CAVOK
  BECMG 0118/0121 VRB03KT
  BECMG 0207/0210 13009KT
  BECMG 0217/0220 11004KT


Raw METAR
EDDK 012220Z 10003KT 080V150 CAVOK 06/00 Q1031 NOSIG
EDDK 012150Z VRB02KT CAVOK 07/00 Q1031 NOSIG
EDDK 012120Z 09005KT CAVOK 07/M00 Q1031 NOSIG
EDDK 012050Z 10005KT CAVOK 07/M01 Q1031 NOSIG
EDDK 012020Z 10004KT CAVOK 07/M01 Q1031 NOSIG
EDDK 011950Z 09004KT CAVOK 07/M01 Q1031 NOSIG

METAR Board
For situational awareness. Not to be used for flight planning purposes.